sensor_id;sensor_type;location;lat;lon;timestamp;P1;durP1;ratioP1;P2;durP2;ratioP2
9094;SDS011;4583;49.796;9.902;2022-09-30T00:07:05;11.37;;;5.27;;
9094;SDS011;4583;49.796;9.902;2022-09-30T00:17:07;10.57;;;5.97;;
9094;SDS011;4583;49.796;9.902;2022-09-30T00:27:08;18.67;;;7.83;;
9094;SDS011;4583;49.796;9.902;2022-09-30T00:37:10;13.77;;;7.90;;
9094;SDS011;4583;49.796;9.902;2022-09-30T00:57:38;19.63;;;8.17;;
9094;SDS011;4583;49.796;9.902;2022-09-30T01:07:40;19.60;;;9.33;;
9094;SDS011;4583;49.796;9.902;2022-09-30T01:17:48;12.80;;;9.00;;
9094;SDS011;4583;49.796;9.902;2022-09-30T01:38:26;22.77;;;8.43;;
9094;SDS011;4583;49.796;9.902;2022-09-30T02:09:01;21.40;;;8.53;;
9094;SDS011;4583;49.796;9.902;2022-09-30T02:19:16;75.43;;;9.90;;
9094;SDS011;4583;49.796;9.902;2022-09-30T02:29:26;16.47;;;8.17;;
9094;SDS011;4583;49.796;9.902;2022-09-30T02:39:32;13.03;;;7.80;;
9094;SDS011;4583;49.796;9.902;2022-09-30T02:49:46;9.70;;;6.03;;
9094;SDS011;4583;49.796;9.902;2022-09-30T02:59:55;27.47;;;5.90;;
9094;SDS011;4583;49.796;9.902;2022-09-30T03:09:57;39.43;;;5.60;;
9094;SDS011;4583;49.796;9.902;2022-09-30T03:30:15;24.83;;;5.70;;
9094;SDS011;4583;49.796;9.902;2022-09-30T03:50:39;14.63;;;7.07;;
9094;SDS011;4583;49.796;9.902;2022-09-30T04:00:44;11.70;;;6.60;;
9094;SDS011;4583;49.796;9.902;2022-09-30T04:10:49;31.07;;;7.97;;
9094;SDS011;4583;49.796;9.902;2022-09-30T04:20:51;9.00;;;6.60;;
9094;SDS011;4583;49.796;9.902;2022-09-30T04:30:53;33.43;;;6.40;;
9094;SDS011;4583;49.796;9.902;2022-09-30T04:40:55;13.43;;;6.73;;
9094;SDS011;4583;49.796;9.902;2022-09-30T04:50:57;11.37;;;6.47;;
9094;SDS011;4583;49.796;9.902;2022-09-30T05:01:04;60.20;;;7.33;;
9094;SDS011;4583;49.796;9.902;2022-09-30T05:11:09;49.43;;;7.13;;
9094;SDS011;4583;49.796;9.902;2022-09-30T05:21:14;75.53;;;8.20;;
9094;SDS011;4583;49.796;9.902;2022-09-30T05:31:17;34.23;;;7.63;;
9094;SDS011;4583;49.796;9.902;2022-09-30T05:41:21;48.93;;;10.37;;
9094;SDS011;4583;49.796;9.902;2022-09-30T05:51:23;38.67;;;15.47;;
9094;SDS011;4583;49.796;9.902;2022-09-30T06:01:25;40.27;;;14.50;;
9094;SDS011;4583;49.796;9.902;2022-09-30T06:11:27;54.50;;;12.37;;
9094;SDS011;4583;49.796;9.902;2022-09-30T06:21:29;61.97;;;14.83;;
9094;SDS011;4583;49.796;9.902;2022-09-30T06:31:30;62.93;;;14.03;;
9094;SDS011;4583;49.796;9.902;2022-09-30T06:41:32;24.93;;;12.93;;
9094;SDS011;4583;49.796;9.902;2022-09-30T06:51:38;22.53;;;10.70;;
9094;SDS011;4583;49.796;9.902;2022-09-30T07:01:39;17.30;;;8.63;;
9094;SDS011;4583;49.796;9.902;2022-09-30T07:11:42;18.63;;;11.57;;
9094;SDS011;4583;49.796;9.902;2022-09-30T07:21:44;9.63;;;6.37;;
9094;SDS011;4583;49.796;9.902;2022-09-30T07:31:45;9.50;;;6.83;;
9094;SDS011;4583;49.796;9.902;2022-09-30T07:41:47;12.47;;;6.77;;
9094;SDS011;4583;49.796;9.902;2022-09-30T07:51:50;10.67;;;7.30;;
9094;SDS011;4583;49.796;9.902;2022-09-30T08:01:53;12.83;;;7.57;;
9094;SDS011;4583;49.796;9.902;2022-09-30T08:11:56;10.57;;;7.90;;
9094;SDS011;4583;49.796;9.902;2022-09-30T08:21:58;17.00;;;7.80;;
9094;SDS011;4583;49.796;9.902;2022-09-30T08:32:00;17.90;;;10.93;;
9094;SDS011;4583;49.796;9.902;2022-09-30T08:52:39;49.50;;;25.27;;
9094;SDS011;4583;49.796;9.902;2022-09-30T09:02:50;37.53;;;21.13;;
9094;SDS011;4583;49.796;9.902;2022-09-30T09:23:10;35.90;;;20.97;;
9094;SDS011;4583;49.796;9.902;2022-09-30T09:33:35;36.67;;;22.07;;
9094;SDS011;4583;49.796;9.902;2022-09-30T09:43:50;34.00;;;20.73;;
9094;SDS011;4583;49.796;9.902;2022-09-30T09:54:22;33.97;;;20.73;;
9094;SDS011;4583;49.796;9.902;2022-09-30T10:04:28;32.90;;;20.00;;
9094;SDS011;4583;49.796;9.902;2022-09-30T10:14:33;22.30;;;15.73;;
9094;SDS011;4583;49.796;9.902;2022-09-30T10:24:37;23.63;;;16.13;;
9094;SDS011;4583;49.796;9.902;2022-09-30T10:34:40;25.10;;;17.10;;
9094;SDS011;4583;49.796;9.902;2022-09-30T10:44:45;22.23;;;16.43;;
9094;SDS011;4583;49.796;9.902;2022-09-30T10:54:52;23.33;;;15.77;;
9094;SDS011;4583;49.796;9.902;2022-09-30T11:04:58;19.77;;;13.13;;
9094;SDS011;4583;49.796;9.902;2022-09-30T11:15:07;16.13;;;12.00;;
9094;SDS011;4583;49.796;9.902;2022-09-30T11:25:39;14.23;;;10.00;;
9094;SDS011;4583;49.796;9.902;2022-09-30T11:35:50;11.13;;;7.20;;
9094;SDS011;4583;49.796;9.902;2022-09-30T11:46:22;8.07;;;6.13;;
9094;SDS011;4583;49.796;9.902;2022-09-30T12:06:51;11.20;;;7.03;;
9094;SDS011;4583;49.796;9.902;2022-09-30T12:17:19;7.43;;;3.73;;
9094;SDS011;4583;49.796;9.902;2022-09-30T12:27:34;5.47;;;3.90;;
9094;SDS011;4583;49.796;9.902;2022-09-30T12:48:14;5.20;;;3.27;;
9094;SDS011;4583;49.796;9.902;2022-09-30T12:58:22;5.83;;;3.40;;
9094;SDS011;4583;49.796;9.902;2022-09-30T13:08:36;4.80;;;3.13;;
9094;SDS011;4583;49.796;9.902;2022-09-30T13:19:17;6.90;;;3.20;;
9094;SDS011;4583;49.796;9.902;2022-09-30T13:49:37;9.20;;;5.30;;
9094;SDS011;4583;49.796;9.902;2022-09-30T14:31:04;4.63;;;2.40;;
9094;SDS011;4583;49.796;9.902;2022-09-30T14:41:13;3.40;;;2.70;;
9094;SDS011;4583;49.796;9.902;2022-09-30T14:51:25;4.03;;;2.30;;
9094;SDS011;4583;49.796;9.902;2022-09-30T15:01:28;6.17;;;2.80;;
9094;SDS011;4583;49.796;9.902;2022-09-30T15:11:34;4.23;;;2.23;;
9094;SDS011;4583;49.796;9.902;2022-09-30T15:21:39;3.07;;;2.10;;
9094;SDS011;4583;49.796;9.902;2022-09-30T15:31:42;2.30;;;1.90;;
9094;SDS011;4583;49.796;9.902;2022-09-30T15:41:47;2.53;;;2.00;;
9094;SDS011;4583;49.796;9.902;2022-09-30T15:51:49;4.00;;;2.27;;
9094;SDS011;4583;49.796;9.902;2022-09-30T16:01:50;9.17;;;4.13;;
9094;SDS011;4583;49.796;9.902;2022-09-30T16:12:13;8.00;;;3.50;;
9094;SDS011;4583;49.796;9.902;2022-09-30T16:32:36;4.73;;;2.77;;
9094;SDS011;4583;49.796;9.902;2022-09-30T16:42:40;4.33;;;3.00;;
9094;SDS011;4583;49.796;9.902;2022-09-30T16:52:41;4.97;;;3.80;;
9094;SDS011;4583;49.796;9.902;2022-09-30T17:02:44;9.20;;;5.07;;
9094;SDS011;4583;49.796;9.902;2022-09-30T17:12:46;7.73;;;5.67;;
9094;SDS011;4583;49.796;9.902;2022-09-30T17:22:50;9.33;;;6.13;;
9094;SDS011;4583;49.796;9.902;2022-09-30T17:32:52;13.33;;;7.47;;
9094;SDS011;4583;49.796;9.902;2022-09-30T17:42:54;35.05;;;18.33;;
9094;SDS011;4583;49.796;9.902;2022-09-30T17:53:09;14.60;;;7.00;;
9094;SDS011;4583;49.796;9.902;2022-09-30T18:03:16;14.80;;;9.03;;
9094;SDS011;4583;49.796;9.902;2022-09-30T18:13:19;16.63;;;9.53;;
9094;SDS011;4583;49.796;9.902;2022-09-30T18:23:20;11.60;;;8.37;;
9094;SDS011;4583;49.796;9.902;2022-09-30T18:33:22;16.17;;;8.47;;
9094;SDS011;4583;49.796;9.902;2022-09-30T18:43:23;11.43;;;8.57;;
9094;SDS011;4583;49.796;9.902;2022-09-30T18:53:25;27.13;;;15.27;;
9094;SDS011;4583;49.796;9.902;2022-09-30T19:03:32;20.63;;;12.47;;
9094;SDS011;4583;49.796;9.902;2022-09-30T19:13:34;30.97;;;18.60;;
9094;SDS011;4583;49.796;9.902;2022-09-30T19:23:36;24.30;;;15.03;;
9094;SDS011;4583;49.796;9.902;2022-09-30T19:33:39;21.23;;;14.00;;
9094;SDS011;4583;49.796;9.902;2022-09-30T19:43:57;19.27;;;13.50;;
9094;SDS011;4583;49.796;9.902;2022-09-30T19:54:02;18.23;;;12.03;;
9094;SDS011;4583;49.796;9.902;2022-09-30T20:04:07;21.20;;;13.50;;
9094;SDS011;4583;49.796;9.902;2022-09-30T20:14:09;20.17;;;13.00;;
9094;SDS011;4583;49.796;9.902;2022-09-30T20:24:29;19.27;;;12.10;;
9094;SDS011;4583;49.796;9.902;2022-09-30T20:34:32;17.90;;;11.97;;
9094;SDS011;4583;49.796;9.902;2022-09-30T20:44:38;20.40;;;13.77;;
9094;SDS011;4583;49.796;9.902;2022-09-30T20:54:42;19.87;;;12.97;;
9094;SDS011;4583;49.796;9.902;2022-09-30T21:04:43;30.17;;;16.93;;
9094;SDS011;4583;49.796;9.902;2022-09-30T21:14:49;34.80;;;19.10;;
9094;SDS011;4583;49.796;9.902;2022-09-30T21:24:51;32.57;;;19.37;;
9094;SDS011;4583;49.796;9.902;2022-09-30T21:34:53;23.47;;;14.80;;
9094;SDS011;4583;49.796;9.902;2022-09-30T21:44:56;17.13;;;9.60;;
9094;SDS011;4583;49.796;9.902;2022-09-30T21:54:58;16.10;;;9.53;;
9094;SDS011;4583;49.796;9.902;2022-09-30T22:05:00;17.87;;;10.83;;
9094;SDS011;4583;49.796;9.902;2022-09-30T22:15:02;18.53;;;10.83;;
9094;SDS011;4583;49.796;9.902;2022-09-30T22:25:03;20.30;;;11.60;;
9094;SDS011;4583;49.796;9.902;2022-09-30T22:35:06;18.73;;;11.40;;
9094;SDS011;4583;49.796;9.902;2022-09-30T22:45:26;25.67;;;12.90;;
9094;SDS011;4583;49.796;9.902;2022-09-30T22:55:29;16.60;;;10.30;;
9094;SDS011;4583;49.796;9.902;2022-09-30T23:05:31;18.03;;;9.43;;
9094;SDS011;4583;49.796;9.902;2022-09-30T23:15:36;15.63;;;8.57;;
9094;SDS011;4583;49.796;9.902;2022-09-30T23:25:38;19.47;;;11.40;;
9094;SDS011;4583;49.796;9.902;2022-09-30T23:35:46;17.80;;;11.47;;
9094;SDS011;4583;49.796;9.902;2022-09-30T23:45:49;20.80;;;9.23;;
9094;SDS011;4583;49.796;9.902;2022-09-30T23:55:58;12.80;;;8.20;;
